createdAt,value
2022-11-22T00:01:42.617Z,7.30
2022-11-22T00:04:09.728Z,7.63
2022-11-22T00:06:36.787Z,9.50
2022-11-22T00:09:03.895Z,9.70
2022-11-22T00:11:31.000Z,10.53
2022-11-22T00:13:58.118Z,9.93
2022-11-22T00:16:25.293Z,9.20
2022-11-22T00:18:52.454Z,10.60
2022-11-22T00:21:19.530Z,7.40
2022-11-22T00:23:46.559Z,10.43
2022-11-22T00:26:13.651Z,9.17
2022-11-22T00:28:40.775Z,9.43
2022-11-22T00:31:07.814Z,8.63
2022-11-22T00:33:34.846Z,7.43
2022-11-22T00:36:01.900Z,11.03
2022-11-22T00:38:29.040Z,8.97
2022-11-22T00:40:56.112Z,10.53
2022-11-22T00:43:23.215Z,11.03
2022-11-22T00:45:50.272Z,9.93
2022-11-22T00:48:17.361Z,7.40
2022-11-22T00:50:44.401Z,8.77
2022-11-22T00:53:11.456Z,12.43
2022-11-22T00:55:38.522Z,8.13
2022-11-22T00:58:05.638Z,7.20
2022-11-22T01:00:32.901Z,8.90
2022-11-22T01:03:00.167Z,7.33
2022-11-22T01:05:27.228Z,7.40
2022-11-22T01:07:54.305Z,9.10
2022-11-22T01:10:21.394Z,8.93
2022-11-22T01:12:48.496Z,7.67
2022-11-22T01:15:15.551Z,8.37
2022-11-22T01:17:42.657Z,8.40
2022-11-22T01:20:09.999Z,8.00
2022-11-22T01:22:37.086Z,9.07
2022-11-22T01:25:04.189Z,8.50
2022-11-22T01:27:31.255Z,7.00
2022-11-22T01:29:58.324Z,8.60
2022-11-22T01:32:25.447Z,7.53
2022-11-22T01:34:52.525Z,7.97
2022-11-22T01:37:19.586Z,8.00
2022-11-22T01:39:46.616Z,9.30
2022-11-22T01:42:13.718Z,7.63
2022-11-22T01:44:41.398Z,7.23
2022-11-22T01:47:15.419Z,7.23
2022-11-22T01:49:42.421Z,8.77
2022-11-22T01:52:12.709Z,8.60
2022-11-22T01:54:41.781Z,8.40
2022-11-22T01:57:11.231Z,9.17
2022-11-22T01:59:40.233Z,8.30
2022-11-22T02:02:07.599Z,7.63
2022-11-22T02:04:36.290Z,8.37
2022-11-22T02:07:23.674Z,9.43
2022-11-22T02:09:52.199Z,7.97
2022-11-22T02:12:20.743Z,7.50
2022-11-22T02:14:47.835Z,10.90
2022-11-22T02:17:14.885Z,7.63
2022-11-22T02:19:44.932Z,7.70
2022-11-22T02:22:14.723Z,8.50
2022-11-22T02:24:45.022Z,8.83
2022-11-22T02:27:12.104Z,8.07
2022-11-22T02:29:39.555Z,8.83
2022-11-22T02:32:06.598Z,8.17
2022-11-22T02:34:47.791Z,8.63
2022-11-22T02:37:16.783Z,9.80
2022-11-22T02:39:45.393Z,9.80
2022-11-22T02:42:12.944Z,10.97
2022-11-22T02:44:40.859Z,7.47
2022-11-22T02:47:07.916Z,8.80
2022-11-22T02:49:34.965Z,8.07
2022-11-22T02:52:02.083Z,9.30
2022-11-22T02:54:29.190Z,8.87
2022-11-22T02:56:56.311Z,10.00
2022-11-22T02:59:23.335Z,7.43
2022-11-22T03:01:50.635Z,7.63
2022-11-22T03:04:26.767Z,8.67
2022-11-22T03:06:58.502Z,12.27
2022-11-22T03:09:26.198Z,9.30
2022-11-22T03:11:53.840Z,7.63
2022-11-22T03:14:21.315Z,7.83
2022-11-22T03:16:48.424Z,9.90
2022-11-22T03:19:15.685Z,9.23
2022-11-22T03:21:43.565Z,9.90
2022-11-22T03:24:10.854Z,10.23
2022-11-22T03:26:38.407Z,10.37
2022-11-22T03:29:05.687Z,7.97
2022-11-22T03:31:32.764Z,7.73
2022-11-22T03:33:59.886Z,9.60
2022-11-22T03:36:26.945Z,9.30
2022-11-22T03:38:53.977Z,10.27
2022-11-22T03:41:21.068Z,8.10
2022-11-22T03:43:48.144Z,7.73
2022-11-22T03:46:16.167Z,7.57
2022-11-22T03:48:43.218Z,9.47
2022-11-22T03:51:10.332Z,9.33
2022-11-22T03:53:37.698Z,8.53
2022-11-22T03:56:04.835Z,8.47
2022-11-22T03:58:31.984Z,8.80
2022-11-22T04:00:59.118Z,8.93
2022-11-22T04:03:26.379Z,9.67
2022-11-22T04:05:53.510Z,6.83
2022-11-22T04:08:20.662Z,7.23
2022-11-22T04:10:49.114Z,6.63
2022-11-22T04:13:16.355Z,8.03
2022-11-22T04:15:43.394Z,7.33
2022-11-22T04:18:11.277Z,6.97
2022-11-22T04:20:57.392Z,8.93
2022-11-22T04:23:30.672Z,6.57
2022-11-22T04:26:00.793Z,6.83
2022-11-22T04:28:53.649Z,6.17
2022-11-22T04:31:33.789Z,7.27
2022-11-22T04:34:00.827Z,6.43
2022-11-22T04:36:27.879Z,6.80
2022-11-22T04:38:54.914Z,9.03
2022-11-22T04:41:21.965Z,6.43
2022-11-22T04:44:07.827Z,6.63
2022-11-22T04:46:34.865Z,8.13
2022-11-22T04:49:01.924Z,7.20
2022-11-22T04:51:47.819Z,7.20
2022-11-22T04:54:14.859Z,7.10
2022-11-22T04:56:41.930Z,7.20
2022-11-22T04:59:09.002Z,6.63
2022-11-22T05:01:36.169Z,7.40
2022-11-22T05:04:03.366Z,7.87
2022-11-22T05:06:30.429Z,7.57
2022-11-22T05:08:57.524Z,10.17
2022-11-22T05:11:24.593Z,8.17
2022-11-22T05:13:51.660Z,7.83
2022-11-22T05:16:18.696Z,8.40
2022-11-22T05:18:58.975Z,7.17
2022-11-22T05:21:27.604Z,9.00
2022-11-22T05:23:54.929Z,6.10
2022-11-22T05:26:24.975Z,9.87
2022-11-22T05:28:52.284Z,7.37
2022-11-22T05:31:23.867Z,8.57
2022-11-22T05:33:51.857Z,7.53
2022-11-22T05:36:19.296Z,7.83
2022-11-22T05:38:46.394Z,6.60
2022-11-22T05:41:14.311Z,6.60
2022-11-22T05:43:41.685Z,7.33
2022-11-22T05:46:12.911Z,8.73
2022-11-22T05:48:41.458Z,7.43
2022-11-22T05:51:10.052Z,6.77
2022-11-22T05:53:37.881Z,6.63
2022-11-22T05:56:08.520Z,7.53
2022-11-22T05:58:36.085Z,7.47
2022-11-22T06:01:13.581Z,7.97
2022-11-22T06:03:41.207Z,8.63
2022-11-22T06:06:08.720Z,6.87
2022-11-22T06:08:36.816Z,7.30
2022-11-22T06:11:13.509Z,7.03
2022-11-22T06:13:41.862Z,8.23
2022-11-22T06:16:09.594Z,9.27
2022-11-22T06:18:36.959Z,6.57
2022-11-22T06:21:05.681Z,6.93
2022-11-22T06:23:32.975Z,7.83
2022-11-22T06:26:00.868Z,6.87
2022-11-22T06:28:29.249Z,6.73
2022-11-22T06:31:01.623Z,7.60
2022-11-22T06:33:28.774Z,7.83
2022-11-22T06:35:55.821Z,8.57
2022-11-22T06:38:22.901Z,8.33
2022-11-22T06:40:49.954Z,7.77
2022-11-22T06:43:17.008Z,8.40
2022-11-22T06:45:44.112Z,11.87
2022-11-22T06:48:11.158Z,8.00
2022-11-22T06:50:38.212Z,7.73
2022-11-22T06:53:05.257Z,9.13
2022-11-22T06:55:50.116Z,9.00
2022-11-22T06:58:17.652Z,9.20
2022-11-22T07:00:44.891Z,7.53
2022-11-22T07:03:12.144Z,7.37
2022-11-22T07:05:39.215Z,7.30
2022-11-22T07:08:13.299Z,10.10
2022-11-22T07:10:40.879Z,9.00
2022-11-22T07:13:07.947Z,9.03
2022-11-22T07:15:34.986Z,9.30
2022-11-22T07:18:02.094Z,9.00
2022-11-22T07:20:29.245Z,9.33
2022-11-22T07:22:56.341Z,9.37
2022-11-22T07:25:23.626Z,7.80
2022-11-22T07:27:52.960Z,10.00
2022-11-22T07:30:20.048Z,8.50
2022-11-22T07:32:49.999Z,9.47
2022-11-22T07:35:17.085Z,8.60
2022-11-22T07:37:44.148Z,8.90
2022-11-22T07:40:11.753Z,9.33
2022-11-22T07:42:38.832Z,7.47
2022-11-22T07:45:06.113Z,10.03
2022-11-22T07:47:33.179Z,11.03
2022-11-22T07:50:00.246Z,8.07
2022-11-22T07:52:27.314Z,9.53
2022-11-22T07:54:54.568Z,8.50
2022-11-22T07:57:21.594Z,7.77
2022-11-22T07:59:48.690Z,8.30
2022-11-22T08:02:15.785Z,10.23
2022-11-22T08:04:42.925Z,9.30
2022-11-22T08:07:10.186Z,9.03
2022-11-22T08:09:37.327Z,9.33
2022-11-22T08:12:04.543Z,9.63
2022-11-22T08:14:31.645Z,9.67
2022-11-22T08:16:58.794Z,12.07
2022-11-22T08:19:25.895Z,11.23
2022-11-22T08:21:58.321Z,9.90
2022-11-22T08:24:25.761Z,8.63
2022-11-22T08:26:52.864Z,11.03
2022-11-22T08:29:20.022Z,13.47
2022-11-22T08:31:47.121Z,9.97
2022-11-22T08:34:14.248Z,9.40
2022-11-22T08:36:41.281Z,10.00
2022-11-22T08:39:08.409Z,10.73
2022-11-22T08:41:35.511Z,10.07
2022-11-22T08:44:02.552Z,10.33
2022-11-22T08:46:30.632Z,7.93
2022-11-22T08:48:57.784Z,12.23
2022-11-22T08:51:24.801Z,9.10
2022-11-22T08:53:51.893Z,9.83
2022-11-22T08:56:18.941Z,7.83
2022-11-22T08:58:46.025Z,10.27
2022-11-22T09:01:14.945Z,8.33
2022-11-22T09:03:42.662Z,10.07
2022-11-22T09:09:22.087Z,9.17
2022-11-22T09:11:45.079Z,10.80
2022-11-22T09:14:12.374Z,10.37
2022-11-22T09:16:39.417Z,10.90
2022-11-22T09:19:06.475Z,12.53
2022-11-22T09:21:33.597Z,11.07
2022-11-22T09:24:00.671Z,13.50
2022-11-22T09:26:27.833Z,10.80
2022-11-22T09:28:54.867Z,8.10
2022-11-22T09:31:22.930Z,8.23
2022-11-22T09:33:50.526Z,10.90
2022-11-22T09:36:19.412Z,9.53
2022-11-22T09:38:46.750Z,10.67
2022-11-22T09:41:13.765Z,10.00
2022-11-22T09:43:48.393Z,10.03
2022-11-22T09:46:27.691Z,11.50
2022-11-22T09:49:00.661Z,10.27
2022-11-22T09:51:35.052Z,9.40
2022-11-22T09:54:08.159Z,9.43
2022-11-22T09:56:35.241Z,9.13
2022-11-22T09:59:14.713Z,9.73
2022-11-22T10:01:47.789Z,8.67
2022-11-22T10:04:17.524Z,8.80
2022-11-22T10:06:46.515Z,8.00
2022-11-22T10:09:21.042Z,9.40
2022-11-22T10:11:51.104Z,8.70
2022-11-22T10:14:30.345Z,9.47
2022-11-22T10:17:13.932Z,9.37
2022-11-22T10:19:46.257Z,7.13
2022-11-22T10:22:14.446Z,8.33
2022-11-22T10:24:42.308Z,8.57
2022-11-22T10:27:15.904Z,9.13
2022-11-22T10:29:47.988Z,9.33
2022-11-22T10:32:15.022Z,9.43
2022-11-22T10:34:48.098Z,9.47
2022-11-22T10:37:20.976Z,8.63
2022-11-22T10:40:06.005Z,9.37
2022-11-22T10:42:51.713Z,7.20
2022-11-22T10:45:27.834Z,7.27
2022-11-22T10:47:57.738Z,8.43
2022-11-22T10:50:43.424Z,9.17
2022-11-22T10:53:33.463Z,8.20
2022-11-22T10:56:11.187Z,7.33
2022-11-22T10:58:51.251Z,7.20
2022-11-22T11:01:21.368Z,9.83
2022-11-22T11:03:50.711Z,9.03
2022-11-22T11:06:33.317Z,8.27
2022-11-22T11:11:57.501Z,9.33
2022-11-22T11:14:33.623Z,9.33
2022-11-22T11:17:01.702Z,11.27
2022-11-22T11:19:34.380Z,8.57
2022-11-22T11:22:03.181Z,8.20
2022-11-22T11:24:31.626Z,11.13
2022-11-22T11:27:00.314Z,8.63
2022-11-22T11:29:27.353Z,10.67
2022-11-22T11:32:13.034Z,7.60
2022-11-22T11:34:41.759Z,10.30
2022-11-22T11:37:13.356Z,10.47
2022-11-22T11:39:46.271Z,8.07
2022-11-22T11:42:24.000Z,9.83
2022-11-22T11:44:51.088Z,8.93
2022-11-22T11:47:32.365Z,9.10
2022-11-22T11:49:59.479Z,9.97
2022-11-22T11:52:28.621Z,10.77
2022-11-22T11:55:00.427Z,7.50
2022-11-22T11:57:27.479Z,7.97
2022-11-22T11:59:54.922Z,10.17
2022-11-22T12:02:23.227Z,8.30
2022-11-22T12:04:52.207Z,8.77
2022-11-22T12:07:25.437Z,12.63
2022-11-22T12:09:53.594Z,10.37
2022-11-22T12:12:38.999Z,11.03
2022-11-22T12:15:19.145Z,9.67
2022-11-22T12:17:55.286Z,10.13
2022-11-22T12:20:27.167Z,12.27
2022-11-22T12:23:00.738Z,10.77
2022-11-22T12:25:36.620Z,10.30
2022-11-22T12:28:11.170Z,12.73
2022-11-22T12:30:40.467Z,11.77
2022-11-22T12:33:09.226Z,10.57
2022-11-22T12:35:42.550Z,12.17
2022-11-22T12:38:12.114Z,13.47
2022-11-22T12:40:40.870Z,12.57
2022-11-22T12:43:12.564Z,9.50
2022-11-22T12:45:41.287Z,11.57
2022-11-22T12:48:14.679Z,11.30
2022-11-22T12:50:41.674Z,11.13
2022-11-22T12:53:16.321Z,12.40
2022-11-22T12:55:46.452Z,10.90
2022-11-22T12:58:19.835Z,12.70
2022-11-22T13:00:55.711Z,12.77
2022-11-22T13:03:27.669Z,12.30
2022-11-22T13:05:55.869Z,9.73
2022-11-22T13:08:29.161Z,9.70
2022-11-22T13:11:02.948Z,12.40
2022-11-22T13:13:34.593Z,12.53
2022-11-22T13:16:03.027Z,12.00
2022-11-22T13:18:33.809Z,12.73
2022-11-22T13:21:06.642Z,10.67
2022-11-22T13:23:52.289Z,11.90
2022-11-22T13:26:38.273Z,11.73
2022-11-22T13:29:11.103Z,8.93
2022-11-22T13:31:41.055Z,11.03
2022-11-22T13:34:22.283Z,11.70
2022-11-22T13:36:50.506Z,11.37
2022-11-22T13:39:19.560Z,10.43
2022-11-22T13:41:53.192Z,11.43
2022-11-22T13:44:23.069Z,13.73
2022-11-22T13:46:50.184Z,12.33
2022-11-22T13:49:17.220Z,12.50
2022-11-22T13:51:51.637Z,13.03
2022-11-22T13:54:34.004Z,12.90
2022-11-22T13:57:02.759Z,12.63
2022-11-22T13:59:30.032Z,13.13
2022-11-22T14:01:58.623Z,11.37
2022-11-22T14:04:26.704Z,12.40
2022-11-22T14:07:02.686Z,18.03
2022-11-22T14:09:36.791Z,17.13
2022-11-22T14:12:26.117Z,15.13
2022-11-22T14:15:12.058Z,15.37
2022-11-22T14:17:57.895Z,12.00
2022-11-22T14:20:40.257Z,16.20
2022-11-22T14:23:13.259Z,14.20
2022-11-22T14:25:56.221Z,11.27
2022-11-22T14:28:26.476Z,10.70
2022-11-22T14:30:55.167Z,10.50
2022-11-22T14:33:24.470Z,13.57
2022-11-22T14:36:06.579Z,12.37
2022-11-22T14:38:36.747Z,10.03
2022-11-22T14:41:22.511Z,10.13
2022-11-22T14:43:50.314Z,13.63
2022-11-22T14:46:45.312Z,11.83
2022-11-22T14:49:06.694Z,13.73
2022-11-22T14:51:34.021Z,13.90
2022-11-22T14:54:02.574Z,12.70
2022-11-22T14:56:36.555Z,13.17
2022-11-22T14:59:03.621Z,15.07
2022-11-22T15:01:36.813Z,18.33
2022-11-22T15:09:10.583Z,14.53
2022-11-22T15:09:17.681Z,13.43
2022-11-22T15:09:52.616Z,15.43
2022-11-22T15:12:20.639Z,16.60
2022-11-22T15:57:44.718Z,16.13
2022-11-22T16:00:32.922Z,14.30
2022-11-22T16:03:06.688Z,14.77
2022-11-22T16:06:04.314Z,14.27
2022-11-22T16:08:22.345Z,14.50
2022-11-22T16:10:51.083Z,16.43
2022-11-22T16:13:21.285Z,16.63
2022-11-22T16:16:23.812Z,15.00
2022-11-22T16:18:53.027Z,13.83
2022-11-22T16:21:21.382Z,21.23
2022-11-22T16:23:48.532Z,16.07
2022-11-22T16:26:29.339Z,14.90
2022-11-22T16:28:57.353Z,16.47
2022-11-22T16:31:27.157Z,15.47
2022-11-22T16:33:54.985Z,15.83
2022-11-22T16:36:22.992Z,16.00
2022-11-22T16:38:50.218Z,18.63
2022-11-22T16:41:27.489Z,16.23
2022-11-22T16:43:55.824Z,17.53
2022-11-22T16:46:23.260Z,15.13
2022-11-22T16:48:50.458Z,13.27
2022-11-22T16:51:17.482Z,17.60
2022-11-22T16:53:46.546Z,14.10
2022-11-22T16:56:21.343Z,20.00
2022-11-22T16:58:49.041Z,18.77
2022-11-22T17:01:17.400Z,17.63
2022-11-22T17:03:45.137Z,17.57
2022-11-22T17:06:19.780Z,16.03
2022-11-22T17:08:47.519Z,17.13
2022-11-22T17:11:16.068Z,16.77
2022-11-22T17:13:43.302Z,17.23
2022-11-22T17:16:11.223Z,18.07
2022-11-22T17:18:38.938Z,18.13
2022-11-22T17:21:10.340Z,18.17
2022-11-22T17:23:38.674Z,16.60
2022-11-22T17:26:06.242Z,18.57
2022-11-22T17:28:33.289Z,15.40
2022-11-22T17:31:01.770Z,17.27
2022-11-22T17:33:29.410Z,16.73
2022-11-22T17:35:56.614Z,16.43
2022-11-22T17:38:23.646Z,15.13
2022-11-22T17:40:50.717Z,16.17
2022-11-22T17:43:17.794Z,16.07
2022-11-22T17:45:45.122Z,16.60
2022-11-22T17:48:12.851Z,17.37
2022-11-22T17:50:40.343Z,16.23
2022-11-22T17:53:07.454Z,24.40
2022-11-22T17:55:48.403Z,16.90
2022-11-22T17:58:21.572Z,17.90
2022-11-22T18:00:48.704Z,15.43
2022-11-22T18:03:15.844Z,13.37
2022-11-22T18:05:43.150Z,15.40
2022-11-22T18:08:10.232Z,13.63
2022-11-22T18:10:38.956Z,13.17
2022-11-22T18:13:20.912Z,13.47
2022-11-22T18:15:52.831Z,16.50
2022-11-22T18:18:48.580Z,14.43
2022-11-22T18:21:11.410Z,13.37
2022-11-22T18:23:41.318Z,14.03
2022-11-22T18:29:32.520Z,15.03
2022-11-22T18:31:52.198Z,11.57
2022-11-22T18:34:20.269Z,15.73
2022-11-22T18:37:04.133Z,17.87
2022-11-22T18:39:33.176Z,14.57
2022-11-22T18:42:00.695Z,13.97
2022-11-22T18:44:27.846Z,16.47
2022-11-22T18:46:54.920Z,16.07
2022-11-22T18:49:22.949Z,15.37
2022-11-22T18:51:49.989Z,16.67
2022-11-22T18:54:18.238Z,20.73
2022-11-22T18:56:45.329Z,13.80
2022-11-22T18:59:12.685Z,16.07
2022-11-22T19:01:40.634Z,13.67
2022-11-22T19:04:08.185Z,15.07
2022-11-22T19:06:35.283Z,17.80
2022-11-22T19:09:02.632Z,13.03
2022-11-22T19:11:31.668Z,17.53
2022-11-22T19:13:58.954Z,18.43
2022-11-22T19:16:29.412Z,15.40
2022-11-22T19:18:56.889Z,18.07
2022-11-22T19:21:25.618Z,18.17
2022-11-22T19:23:52.977Z,16.13
2022-11-22T19:26:21.044Z,18.07
2022-11-22T19:28:48.746Z,19.07
2022-11-22T19:31:17.436Z,15.10
2022-11-22T19:33:44.718Z,15.53
2022-11-22T19:36:13.008Z,18.17
2022-11-22T19:38:40.192Z,18.90
2022-11-22T19:41:08.078Z,17.43
2022-11-22T19:43:35.151Z,17.33
2022-11-22T19:46:02.489Z,16.93
2022-11-22T19:48:29.869Z,17.97
2022-11-22T19:50:57.025Z,18.20
2022-11-22T19:53:24.342Z,19.80
2022-11-22T19:55:51.394Z,16.00
2022-11-22T19:58:20.309Z,22.83
2022-11-22T20:00:47.596Z,15.57
2022-11-22T20:03:14.739Z,20.40
2022-11-22T20:05:42.041Z,24.50
2022-11-22T20:08:09.837Z,17.40
2022-11-22T20:10:38.399Z,16.00
2022-11-22T20:13:08.062Z,17.37
2022-11-22T20:15:37.598Z,18.70
2022-11-22T20:18:04.756Z,18.57
2022-11-22T20:20:31.799Z,17.43
2022-11-22T20:22:58.839Z,18.70
2022-11-22T20:25:25.930Z,19.07
2022-11-22T20:27:52.970Z,17.40
2022-11-22T20:30:20.227Z,17.80
2022-11-22T20:32:47.256Z,17.00
2022-11-22T20:35:14.379Z,16.33
2022-11-22T20:37:41.426Z,18.77
2022-11-22T20:40:08.726Z,18.37
2022-11-22T20:42:35.863Z,20.73
2022-11-22T20:45:08.324Z,19.53
2022-11-22T20:47:36.000Z,18.97
2022-11-22T20:50:03.525Z,19.07
2022-11-22T20:52:30.784Z,15.00
2022-11-22T20:55:03.369Z,23.23
2022-11-22T20:57:32.080Z,16.47
2022-11-22T20:59:59.150Z,14.17
2022-11-22T21:02:26.265Z,18.67
2022-11-22T21:04:53.306Z,15.20
2022-11-22T21:07:20.394Z,15.93
2022-11-22T21:09:47.535Z,13.47
2022-11-22T21:12:14.603Z,15.20
2022-11-22T21:14:41.700Z,13.87
2022-11-22T21:17:37.189Z,14.00
2022-11-22T21:19:55.757Z,15.07
2022-11-22T21:22:26.149Z,12.73
2022-11-22T21:24:57.297Z,13.57
2022-11-22T21:27:24.410Z,15.30
2022-11-22T21:29:51.533Z,14.77
2022-11-22T21:32:18.686Z,16.03
2022-11-22T21:34:45.726Z,14.90
2022-11-22T21:37:12.828Z,14.60
2022-11-22T21:39:39.896Z,14.40
2022-11-22T21:42:06.954Z,14.30
2022-11-22T21:44:33.976Z,12.27
2022-11-22T21:47:01.124Z,14.20
2022-11-22T21:49:28.279Z,16.37
2022-11-22T21:51:55.609Z,15.27
2022-11-22T21:54:22.689Z,14.23
2022-11-22T21:56:49.782Z,16.63
2022-11-22T21:59:17.618Z,13.87
2022-11-22T22:01:44.729Z,14.43
2022-11-22T22:04:11.856Z,16.07
2022-11-22T22:06:43.499Z,18.50
2022-11-22T22:09:12.949Z,14.47
2022-11-22T22:11:41.805Z,17.03
2022-11-22T22:14:08.949Z,14.50
2022-11-22T22:16:36.021Z,16.97
2022-11-22T22:19:08.035Z,13.47
2022-11-22T22:21:36.485Z,13.20
2022-11-22T22:24:03.881Z,13.43
2022-11-22T22:26:34.660Z,14.77
2022-11-22T22:29:01.727Z,13.60
2022-11-22T22:31:28.864Z,15.33
2022-11-22T22:33:56.735Z,12.30
2022-11-22T22:36:24.647Z,15.97
2022-11-22T22:38:51.739Z,13.33
2022-11-22T22:41:19.075Z,13.67
2022-11-22T22:43:47.488Z,13.87
2022-11-22T22:46:16.222Z,12.90
2022-11-22T22:48:43.504Z,15.57
2022-11-22T22:51:17.969Z,11.00
2022-11-22T22:53:45.286Z,12.47
2022-11-22T22:56:12.834Z,13.57
2022-11-22T22:58:40.014Z,11.63
2022-11-22T23:01:14.565Z,14.17
2022-11-22T23:03:41.811Z,10.57
2022-11-22T23:06:09.627Z,13.17
2022-11-22T23:08:37.081Z,15.67
2022-11-22T23:11:08.912Z,13.17
2022-11-22T23:13:40.481Z,11.77
2022-11-22T23:16:08.680Z,13.53
2022-11-22T23:18:36.579Z,13.80
2022-11-22T23:21:04.602Z,12.73
2022-11-22T23:23:32.251Z,10.67
2022-11-22T23:26:06.560Z,12.10
2022-11-22T23:28:33.966Z,12.00
2022-11-22T23:31:08.145Z,12.80
2022-11-22T23:33:35.392Z,10.73
2022-11-22T23:36:06.051Z,12.83
2022-11-22T23:38:33.585Z,11.37
2022-11-22T23:41:00.937Z,11.53
2022-11-22T23:43:28.164Z,10.97
2022-11-22T23:45:55.297Z,12.07
2022-11-22T23:48:22.344Z,13.50
2022-11-22T23:50:49.421Z,11.50
2022-11-22T23:53:16.476Z,11.67
2022-11-22T23:55:43.705Z,14.03
2022-11-22T23:58:10.866Z,10.33
